Pagrindinis puslapis
METAR-TAF:

METAR-TAF

Oro uostai :

Kaltag, Aliaska, Jungtinės Amerikos Valstijos

platuma: 64-19N, ilguma: 158-44W, Aukštis: 54 m

Dabartinis oras

Ataskaita buvo paskelbta 29 minutes, ne 04:53 UTC
Vėjas 3 kt iš Pietvakarių
Temperatūra 11°C
Drėgmė 87%
Slėgis 1002 hPa
Matomumas: 16.1 km
Apsiniaukę ne aukštis 7000 ft

METAR: PAKV 160453Z AUTO 23003KT 10SM OVC070 11/09 A2958 RMK SLP018 P0001 T01060094 TSNO $ VIA AUTODIAL

Laikas: 21:22 (05:22 UTC)


TAF: trūkstamas

Orai ataskaitas ir orų prognozės (METAR, TAF).

turimą stotys yra geltonos ir raudonos taškus žemėlapyje.

Perkelti pele per norėdami pamatyti stoties vardą.

Tada spustelėkite, norėdami matyti oro stebėjimo ir prognozės.

Norėdami pakeisti žemėlapį: spustelėkite ant žalios mygtukų su juodo kryžiaus žemyn,; žalią mygtuką su brūkšneliu, jei norite nutolinti; arba žalių rodyklių gretimoms žemėlapius.


METAR-TAF: